Time;durP1;ratioP1;P1;durP2;ratioP2;P2;SDS_P1;SDS_P2;PMS_P1;PMS_P2;Temp;Humidity;BMP_temperature;BMP_pressure;BME280_temperature;BME280_humidity;BME280_pressure;Samples;Min_cycle;Max_cycle;Signal;HPM_P1;HPM_P2
2022/02/28 00:00:52;;;;;;;13.80;6.97;;;6.00;95.10;;;;;;4950290;28;20065;-68
2022/02/28 00:03:20;;;;;;;13.63;7.70;;;6.10;95.20;;;;;;4964914;28;20054;-69
2022/02/28 00:05:47;;;;;;;15.38;7.30;;;6.10;95.10;;;;;;4960353;28;20055;-69
2022/02/28 00:08:15;;;;;;;12.73;7.80;;;6.10;95.20;;;;;;4987023;28;20079;-69
2022/02/28 00:10:43;;;;;;;13.77;6.80;;;6.10;95.30;;;;;;4956888;28;20051;-68
2022/02/28 00:13:13;;;;;;;14.38;6.03;;;6.10;95.30;;;;;;4956883;28;20126;-69
2022/02/28 00:15:40;;;;;;;14.23;7.10;;;6.10;95.40;;;;;;4942125;28;20095;-68
2022/02/28 00:18:07;;;;;;;13.40;7.30;;;6.10;95.60;;;;;;4941207;28;20063;-69
2022/02/28 00:20:34;;;;;;;19.90;8.20;;;6.10;95.60;;;;;;4949402;28;20129;-69
2022/02/28 00:23:01;;;;;;;12.27;6.53;;;6.20;95.70;;;;;;4967722;28;20126;-69
2022/02/28 00:25:32;;;;;;;18.10;7.72;;;6.20;95.60;;;;;;4963799;28;20047;-69
2022/02/28 00:28:00;;;;;;;11.20;6.68;;;6.20;95.80;;;;;;4958820;28;20055;-68
2022/02/28 00:30:33;;;;;;;18.60;7.18;;;6.20;95.90;;;;;;4963359;28;20387;-68
2022/02/28 00:33:01;;;;;;;16.48;7.88;;;6.20;96.00;;;;;;4960888;28;20051;-70
2022/02/28 00:35:28;;;;;;;16.13;7.95;;;6.20;96.10;;;;;;4955861;28;20055;-68
2022/02/28 00:37:55;;;;;;;11.10;7.25;;;6.20;96.00;;;;;;4955453;28;20049;-68
2022/02/28 00:40:22;;;;;;;12.82;7.45;;;6.20;96.30;;;;;;4987093;28;20062;-69
2022/02/28 00:42:49;;;;;;;18.30;7.93;;;6.20;96.40;;;;;;4907199;28;20154;-68
2022/02/28 00:45:17;;;;;;;11.63;6.10;;;6.30;96.70;;;;;;4940364;28;20466;-75
2022/02/28 00:47:44;;;;;;;11.05;6.55;;;6.30;96.70;;;;;;4955102;28;20517;-69
2022/02/28 00:50:11;;;;;;;14.75;7.88;;;6.20;96.70;;;;;;4956756;28;20051;-69
2022/02/28 00:52:39;;;;;;;12.00;6.85;;;6.20;96.90;;;;;;4950564;28;20062;-69
2022/02/28 00:55:07;;;;;;;15.35;7.15;;;6.20;97.10;;;;;;4948460;28;20073;-69
2022/02/28 00:57:34;;;;;;;16.17;7.95;;;6.20;97.40;;;;;;4950658;28;20047;-73
2022/02/28 01:00:05;;;;;;;17.30;8.25;;;6.20;97.50;;;;;;4942691;28;20078;-69
2022/02/28 01:02:32;;;;;;;11.43;6.88;;;6.20;97.60;;;;;;4962776;28;20057;-68
2022/02/28 01:05:01;;;;;;;20.08;8.35;;;6.20;97.80;;;;;;4969920;28;20051;-69
2022/02/28 01:07:28;;;;;;;15.30;6.65;;;6.20;98.00;;;;;;4956227;28;20054;-69
2022/02/28 01:09:55;;;;;;;14.82;7.40;;;6.20;98.20;;;;;;4943200;28;20081;-68
2022/02/28 01:12:22;;;;;;;13.55;6.38;;;6.20;98.40;;;;;;4956154;28;20402;-69
2022/02/28 01:14:49;;;;;;;9.88;6.78;;;6.20;98.60;;;;;;4972150;28;20862;-68
2022/02/28 01:17:16;;;;;;;18.83;8.23;;;6.10;98.70;;;;;;4939515;28;20499;-73
2022/02/28 01:19:43;;;;;;;12.35;7.63;;;6.20;98.90;;;;;;4942464;28;20426;-69
2022/02/28 01:22:11;;;;;;;16.33;8.65;;;6.10;98.90;;;;;;4941082;28;20059;-68
2022/02/28 01:24:39;;;;;;;12.77;6.97;;;6.10;99.20;;;;;;4959302;28;20047;-73
2022/02/28 01:27:06;;;;;;;16.05;7.75;;;6.10;99.40;;;;;;4961664;28;20078;-68
2022/02/28 01:29:33;;;;;;;14.27;7.55;;;6.10;99.70;;;;;;4971395;28;20051;-68
2022/02/28 01:32:00;;;;;;;15.48;7.85;;;6.10;99.80;;;;;;4968466;28;20051;-76
2022/02/28 01:34:27;;;;;;;13.70;7.15;;;6.00;99.90;;;;;;4955894;28;20130;-69
2022/02/28 01:36:54;;;;;;;16.02;6.97;;;6.00;99.90;;;;;;4939810;29;20133;-68
2022/02/28 01:39:21;;;;;;;13.82;7.32;;;6.00;99.90;;;;;;4985664;28;20047;-69
2022/02/28 01:41:48;;;;;;;16.33;7.07;;;5.90;99.90;;;;;;4958688;28;20505;-68
2022/02/28 01:44:15;;;;;;;14.23;7.20;;;5.90;99.90;;;;;;4970071;28;20129;-72
2022/02/28 01:46:43;;;;;;;12.95;7.40;;;5.90;99.90;;;;;;4973247;28;20553;-70
2022/02/28 01:49:09;;;;;;;16.48;7.05;;;5.90;99.90;;;;;;4940046;28;20466;-69
2022/02/28 01:51:37;;;;;;;16.63;7.25;;;5.90;99.90;;;;;;4972474;28;20055;-69
2022/02/28 01:54:05;;;;;;;17.15;8.55;;;5.80;99.90;;;;;;4960320;28;20050;-69
2022/02/28 01:56:34;;;;;;;14.10;7.60;;;5.80;99.90;;;;;;4967352;28;20047;-68
2022/02/28 01:59:02;;;;;;;13.13;8.00;;;5.80;99.90;;;;;;4963318;28;20060;-68
2022/02/28 02:01:29;;;;;;;17.45;8.90;;;5.80;99.90;;;;;;4969255;28;20145;-68
2022/02/28 02:03:56;;;;;;;12.63;7.05;;;5.80;99.90;;;;;;4955179;28;20121;-71
2022/02/28 02:06:23;;;;;;;10.52;7.10;;;5.80;99.90;;;;;;4957217;28;20483;-70
2022/02/28 02:08:51;;;;;;;14.63;7.15;;;5.80;99.90;;;;;;4955459;28;20047;-69
2022/02/28 02:11:18;;;;;;;12.95;6.65;;;5.80;99.90;;;;;;4946965;28;20043;-69
2022/02/28 02:13:46;;;;;;;15.93;7.63;;;5.80;99.90;;;;;;4957953;28;20067;-69
2022/02/28 02:16:15;;;;;;;11.30;6.38;;;5.80;99.90;;;;;;4956146;28;20070;-77
2022/02/28 02:18:42;;;;;;;13.05;7.20;;;5.80;99.90;;;;;;4964914;28;20388;-68
2022/02/28 02:21:09;;;;;;;14.23;6.43;;;5.80;99.90;;;;;;4952671;28;20053;-68
2022/02/28 02:23:36;;;;;;;11.45;6.22;;;5.90;99.90;;;;;;4954173;28;20078;-69
2022/02/28 02:26:06;;;;;;;16.90;6.53;;;5.80;99.90;;;;;;4958520;28;20412;-69
2022/02/28 02:28:36;;;;;;;10.63;6.40;;;5.90;99.90;;;;;;4954820;28;20046;-69
2022/02/28 02:31:04;;;;;;;8.68;5.90;;;5.90;99.90;;;;;;4967943;28;20047;-68
2022/02/28 02:33:31;;;;;;;17.52;7.40;;;5.90;99.90;;;;;;4970470;28;20059;-69
2022/02/28 02:36:00;;;;;;;13.93;6.90;;;5.90;99.90;;;;;;4944783;28;20109;-69
2022/02/28 02:38:27;;;;;;;15.07;7.30;;;5.90;99.90;;;;;;4948882;28;20070;-70
2022/02/28 02:40:54;;;;;;;16.33;7.68;;;5.90;99.90;;;;;;4954336;28;20311;-69
2022/02/28 02:43:21;;;;;;;14.00;6.50;;;5.90;99.90;;;;;;4986894;28;20047;-69
2022/02/28 02:45:48;;;;;;;15.65;6.95;;;5.90;99.90;;;;;;4968161;28;20141;-68
2022/02/28 02:48:17;;;;;;;14.68;7.47;;;5.90;99.90;;;;;;4936442;29;20497;-70
2022/02/28 02:50:44;;;;;;;15.27;7.37;;;5.90;99.90;;;;;;4969405;28;20125;-69
2022/02/28 02:53:11;;;;;;;15.60;7.43;;;5.90;99.90;;;;;;4967368;28;20086;-69
2022/02/28 02:55:39;;;;;;;10.63;5.90;;;5.90;99.90;;;;;;4944095;29;20058;-69
2022/02/28 02:58:07;;;;;;;18.23;7.53;;;6.00;99.90;;;;;;4952968;29;20055;-68
2022/02/28 03:00:34;;;;;;;17.65;7.95;;;6.00;99.90;;;;;;4968776;28;20053;-68
2022/02/28 03:03:01;;;;;;;13.73;7.47;;;6.00;99.90;;;;;;4937145;29;20107;-69
2022/02/28 03:05:28;;;;;;;16.27;6.78;;;6.10;99.90;;;;;;4955274;28;20047;-69
2022/02/28 03:07:55;;;;;;;11.20;6.75;;;6.10;99.90;;;;;;4953809;28;20055;-68
2022/02/28 03:10:22;;;;;;;12.95;6.70;;;6.10;99.90;;;;;;4955262;28;20058;-69
2022/02/28 03:12:49;;;;;;;16.55;6.68;;;6.20;99.90;;;;;;4952663;28;20047;-69
2022/02/28 03:15:16;;;;;;;13.75;6.15;;;6.20;99.90;;;;;;4937537;29;20154;-69
2022/02/28 03:17:43;;;;;;;13.60;8.50;;;6.20;99.90;;;;;;4958615;28;20050;-68
2022/02/28 03:20:11;;;;;;;12.80;6.47;;;6.30;99.90;;;;;;4945017;28;20050;-68
2022/02/28 03:22:38;;;;;;;16.08;7.50;;;6.30;99.90;;;;;;4955623;28;20487;-69
2022/02/28 03:25:05;;;;;;;9.80;6.20;;;6.40;99.90;;;;;;4944552;29;20047;-69
2022/02/28 03:27:33;;;;;;;14.65;7.22;;;6.40;99.90;;;;;;4967573;28;20054;-69
2022/02/28 03:30:00;;;;;;;11.82;7.43;;;6.40;99.90;;;;;;4984788;28;20070;-68
2022/02/28 03:32:27;;;;;;;10.75;6.93;;;6.50;99.90;;;;;;4953543;28;20071;-69
2022/02/28 03:34:54;;;;;;;15.95;6.88;;;6.50;99.90;;;;;;4938223;29;20054;-68
2022/02/28 03:37:21;;;;;;;17.90;7.70;;;6.50;99.90;;;;;;4957868;28;20050;-70
2022/02/28 03:39:48;;;;;;;13.93;7.18;;;6.50;99.90;;;;;;4959954;28;20063;-69
2022/02/28 03:42:15;;;;;;;15.25;7.20;;;6.50;99.90;;;;;;4937548;28;20051;-69
2022/02/28 03:44:42;;;;;;;17.05;7.32;;;6.50;99.90;;;;;;4955894;28;20130;-69
2022/02/28 03:47:09;;;;;;;14.57;6.82;;;6.50;99.90;;;;;;4952045;28;20498;-68
2022/02/28 03:49:36;;;;;;;19.55;8.02;;;6.50;99.90;;;;;;4965122;28;20057;-69
2022/02/28 03:52:03;;;;;;;13.65;6.18;;;6.50;99.90;;;;;;4934802;29;20377;-68
2022/02/28 03:54:33;;;;;;;12.73;7.35;;;6.50;99.90;;;;;;4978635;28;20059;-71
2022/02/28 03:57:00;;;;;;;13.20;7.10;;;6.60;99.90;;;;;;4957702;28;20102;-70
2022/02/28 03:59:27;;;;;;;12.48;6.40;;;6.50;99.90;;;;;;4951893;28;20050;-69
2022/02/28 04:01:54;;;;;;;13.05;6.32;;;6.50;99.90;;;;;;4948640;28;20046;-69
2022/02/28 04:04:21;;;;;;;17.02;7.85;;;6.60;99.90;;;;;;4948576;29;20102;-69
2022/02/28 04:06:48;;;;;;;10.70;6.07;;;6.60;99.90;;;;;;4969021;28;20051;-69
2022/02/28 04:09:22;;;;;;;;;;;6.60;99.90;;;;;;4927978;28;20050;-69
2022/02/28 04:11:49;;;;;;;9.98;5.28;;;6.60;99.90;;;;;;4954278;28;20009;-69
2022/02/28 04:14:16;;;;;;;10.75;6.10;;;6.70;99.90;;;;;;4955179;28;20043;-70
2022/02/28 04:16:43;;;;;;;14.77;6.45;;;6.70;99.90;;;;;;4956109;28;20499;-69
2022/02/28 04:19:10;;;;;;;11.57;5.97;;;6.70;99.90;;;;;;4956044;28;20561;-69
2022/02/28 04:21:37;;;;;;;12.48;6.65;;;6.80;99.90;;;;;;4963617;28;20139;-68
2022/02/28 04:24:04;;;;;;;12.00;6.00;;;6.80;99.90;;;;;;4957243;28;20414;-69
2022/02/28 04:26:32;;;;;;;11.88;6.50;;;6.80;99.90;;;;;;4969840;28;20065;-69
2022/02/28 04:28:59;;;;;;;13.98;8.18;;;6.90;99.90;;;;;;4967011;28;20055;-68
2022/02/28 04:31:26;;;;;;;13.80;6.78;;;6.90;99.90;;;;;;4955049;28;20062;-75
2022/02/28 04:33:53;;;;;;;14.57;7.70;;;6.90;99.90;;;;;;4972544;28;20047;-69
2022/02/28 04:36:20;;;;;;;11.35;6.45;;;7.00;99.90;;;;;;4950129;28;20135;-69
2022/02/28 04:38:47;;;;;;;14.40;6.88;;;7.00;99.90;;;;;;4964143;28;20061;-69
2022/02/28 04:41:14;;;;;;;12.40;6.30;;;7.00;99.90;;;;;;4963117;28;20043;-69
2022/02/28 04:43:42;;;;;;;18.15;8.20;;;7.00;99.90;;;;;;4972425;28;20047;-74
2022/02/28 04:46:09;;;;;;;25.52;7.20;;;7.00;99.90;;;;;;4960388;28;20126;-68
2022/02/28 04:48:36;;;;;;;16.35;7.28;;;7.00;99.90;;;;;;4956114;28;20049;-72
2022/02/28 04:51:03;;;;;;;11.75;6.32;;;7.10;99.90;;;;;;4969113;28;20048;-69
2022/02/28 04:53:30;;;;;;;22.05;7.93;;;7.10;99.90;;;;;;4971269;28;20077;-69
2022/02/28 04:56:00;;;;;;;13.73;6.30;;;7.10;99.90;;;;;;4975318;28;20046;-69
2022/02/28 04:58:27;;;;;;;14.80;6.72;;;7.10;99.90;;;;;;4963377;28;20134;-69
2022/02/28 05:00:54;;;;;;;16.10;6.53;;;7.20;99.90;;;;;;4963167;28;20138;-69
2022/02/28 05:03:21;;;;;;;17.33;8.57;;;7.20;99.90;;;;;;4958457;28;20130;-69
2022/02/28 05:05:49;;;;;;;13.95;6.80;;;7.20;99.90;;;;;;4958895;28;20130;-69
2022/02/28 05:08:16;;;;;;;14.48;7.90;;;7.20;99.90;;;;;;4986357;28;20140;-69
2022/02/28 05:10:43;;;;;;;16.25;7.00;;;7.30;99.90;;;;;;4971420;28;20515;-68
2022/02/28 05:13:10;;;;;;;16.90;7.40;;;7.30;99.90;;;;;;4948536;28;20050;-69
2022/02/28 05:15:37;;;;;;;13.73;6.95;;;7.40;99.90;;;;;;4967808;28;20055;-68
2022/02/28 05:18:04;;;;;;;13.55;7.53;;;7.30;99.90;;;;;;4963477;28;20134;-76
2022/02/28 05:20:31;;;;;;;13.15;6.80;;;7.40;99.90;;;;;;4960323;28;20478;-69
2022/02/28 05:22:59;;;;;;;12.25;6.07;;;7.40;99.90;;;;;;4964672;28;20046;-70
2022/02/28 05:25:27;;;;;;;19.63;6.97;;;7.40;99.90;;;;;;4946891;28;20039;-71
2022/02/28 05:27:54;;;;;;;13.50;6.65;;;7.40;99.90;;;;;;4957826;28;20051;-69
2022/02/28 05:30:21;;;;;;;9.85;6.50;;;7.50;99.90;;;;;;4972222;28;20051;-69
2022/02/28 05:32:48;;;;;;;15.35;6.70;;;7.50;99.90;;;;;;4961101;28;20114;-69
2022/02/28 05:35:15;;;;;;;15.10;8.05;;;7.50;99.90;;;;;;4956077;28;20052;-69
2022/02/28 05:37:42;;;;;;;14.25;6.93;;;7.50;99.90;;;;;;4965139;28;20077;-69
2022/02/28 05:40:10;;;;;;;17.95;9.00;;;7.50;99.90;;;;;;4960093;28;20415;-69
2022/02/28 05:42:38;;;;;;;12.27;6.47;;;7.60;99.90;;;;;;4964460;28;20042;-69
2022/02/28 05:45:08;;;;;;;14.85;7.43;;;7.60;99.90;;;;;;4948695;29;20055;-69
2022/02/28 05:47:35;;;;;;;15.52;7.07;;;7.60;99.90;;;;;;4939532;28;20154;-70
2022/02/28 05:50:03;;;;;;;12.60;7.70;;;7.60;99.90;;;;;;4967519;28;20055;-69
2022/02/28 05:52:30;;;;;;;12.77;6.25;;;7.60;99.90;;;;;;4932223;29;20043;-69
2022/02/28 05:54:56;;;;;;;10.93;6.35;;;7.60;99.90;;;;;;4955888;28;20491;-69
2022/02/28 05:57:23;;;;;;;198.98;139.20;;;7.70;99.90;;;;;;4945063;29;20126;-61
2022/02/28 05:59:50;;;;;;;35.30;26.67;;;7.60;99.90;;;;;;4970534;28;20042;-70
2022/02/28 06:02:18;;;;;;;22.00;13.00;;;7.70;99.90;;;;;;4953779;28;20054;-71
2022/02/28 06:04:45;;;;;;;21.02;9.20;;;7.70;99.90;;;;;;4969639;28;20058;-73
2022/02/28 06:07:13;;;;;;;15.98;6.90;;;7.70;99.90;;;;;;4966410;28;20047;-70
2022/02/28 06:09:39;;;;;;;17.15;8.05;;;7.70;99.90;;;;;;4955497;28;20055;-70
2022/02/28 06:12:09;;;;;;;17.27;7.47;;;7.70;99.90;;;;;;4953388;28;20062;-70
2022/02/28 06:14:36;;;;;;;20.80;8.02;;;7.70;99.90;;;;;;4968322;28;20141;-70
2022/02/28 06:17:03;;;;;;;17.50;6.18;;;7.70;99.90;;;;;;4965702;28;20051;-76
2022/02/28 06:19:30;;;;;;;13.52;5.93;;;7.70;99.90;;;;;;4955701;28;20091;-70
2022/02/28 06:21:58;;;;;;;11.45;6.22;;;7.70;99.90;;;;;;4953418;28;20047;-70
2022/02/28 06:24:25;;;;;;;14.43;6.43;;;7.70;99.90;;;;;;4954845;28;20110;-75
2022/02/28 06:26:53;;;;;;;16.65;6.65;;;7.70;99.90;;;;;;4953775;28;20078;-69
2022/02/28 06:29:20;;;;;;;14.27;5.93;;;7.60;99.90;;;;;;4953234;28;20107;-73
2022/02/28 06:31:47;;;;;;;12.25;6.47;;;7.60;99.90;;;;;;4938389;28;20107;-70
2022/02/28 06:34:14;;;;;;;16.27;7.38;;;7.60;99.90;;;;;;4968966;28;20203;-71
2022/02/28 06:36:41;;;;;;;13.48;6.50;;;7.70;99.90;;;;;;4938882;28;20459;-71
2022/02/28 06:39:09;;;;;;;14.00;6.13;;;7.70;99.90;;;;;;4968754;28;20055;-70
2022/02/28 06:41:36;;;;;;;12.20;5.45;;;7.70;99.90;;;;;;4949467;28;20058;-68
2022/02/28 06:44:04;;;;;;;13.18;7.10;;;7.70;99.90;;;;;;4940438;29;20043;-68
2022/02/28 06:46:31;;;;;;;11.25;5.80;;;7.70;99.90;;;;;;4962254;28;20121;-67
2022/02/28 06:48:58;;;;;;;16.50;7.88;;;7.70;99.90;;;;;;4964623;28;20058;-69
2022/02/28 06:51:27;;;;;;;30.53;17.23;;;7.80;99.90;;;;;;4959719;28;20051;-66
2022/02/28 06:53:54;;;;;;;14.02;7.97;;;7.80;99.90;;;;;;4925527;29;20137;-66
2022/02/28 06:56:21;;;;;;;10.40;6.05;;;7.80;99.90;;;;;;4943749;29;20086;-71
2022/02/28 06:58:48;;;;;;;15.63;6.90;;;7.80;99.90;;;;;;4982682;28;20075;-67
2022/02/28 07:01:15;;;;;;;13.93;6.47;;;7.80;99.90;;;;;;4949541;28;20063;-71
2022/02/28 07:03:43;;;;;;;13.23;5.95;;;7.80;99.90;;;;;;4965664;28;20050;-73
2022/02/28 07:06:11;;;;;;;10.18;5.97;;;7.90;99.90;;;;;;4949340;28;20059;-70
2022/02/28 07:08:38;;;;;;;17.30;6.68;;;7.90;99.90;;;;;;4953024;28;20066;-70
2022/02/28 07:11:05;;;;;;;11.18;5.90;;;7.90;99.90;;;;;;4950038;29;20058;-70
2022/02/28 07:13:32;;;;;;;18.25;5.63;;;7.90;99.90;;;;;;4965990;28;20119;-71
2022/02/28 07:15:59;;;;;;;17.27;6.07;;;7.90;99.90;;;;;;4958452;28;20125;-70
2022/02/28 07:18:26;;;;;;;27.45;17.75;;;8.00;99.90;;;;;;4966699;28;20121;-69
2022/02/28 07:20:53;;;;;;;13.10;6.32;;;8.00;99.90;;;;;;4954270;28;20050;-69
2022/02/28 07:23:20;;;;;;;16.38;7.28;;;8.00;99.90;;;;;;4957251;28;20072;-69
2022/02/28 07:25:47;;;;;;;15.15;7.38;;;8.00;99.90;;;;;;4952093;28;20049;-69
2022/02/28 07:28:14;;;;;;;12.27;5.85;;;8.00;99.90;;;;;;4953632;28;20048;-69
2022/02/28 07:30:42;;;;;;;9.27;5.57;;;8.10;99.90;;;;;;4962257;28;20082;-66
2022/02/28 07:33:09;;;;;;;13.68;6.07;;;8.10;99.90;;;;;;4953683;28;20391;-65
2022/02/28 07:35:36;;;;;;;13.57;6.70;;;8.10;99.90;;;;;;4966411;28;20055;-68
2022/02/28 07:38:03;;;;;;;11.88;5.93;;;8.20;99.90;;;;;;4969814;28;20051;-67
2022/02/28 07:40:30;;;;;;;21.05;6.82;;;8.20;99.90;;;;;;4936383;29;20158;-69
2022/02/28 07:42:58;;;;;;;13.85;5.88;;;8.20;99.90;;;;;;4951449;29;20054;-64
2022/02/28 07:45:25;;;;;;;16.98;6.45;;;8.20;99.80;;;;;;4936247;29;20063;-64
2022/02/28 07:47:52;;;;;;;15.85;5.40;;;8.30;99.70;;;;;;4952480;29;20059;-65
2022/02/28 07:50:20;;;;;;;11.77;6.00;;;8.30;99.70;;;;;;4953847;28;20132;-66
2022/02/28 07:52:47;;;;;;;11.60;5.55;;;8.30;99.80;;;;;;4957974;28;20078;-65
2022/02/28 07:55:14;;;;;;;13.35;6.05;;;8.30;99.90;;;;;;4999554;28;20055;-66
2022/02/28 07:57:41;;;;;;;15.57;6.28;;;8.40;99.50;;;;;;4962277;28;20496;-67
2022/02/28 08:00:09;;;;;;;10.63;5.95;;;8.40;99.90;;;;;;4953714;28;20072;-67
2022/02/28 08:02:36;;;;;;;12.50;5.65;;;8.50;99.60;;;;;;4958858;29;20048;-65
2022/02/28 08:05:04;;;;;;;11.50;6.40;;;8.50;99.60;;;;;;4960095;29;20086;-66
2022/02/28 08:07:31;;;;;;;15.82;6.53;;;8.50;99.50;;;;;;4959796;28;20047;-68
2022/02/28 08:09:58;;;;;;;14.63;6.15;;;8.50;99.60;;;;;;4960462;28;20059;-67
2022/02/28 08:12:25;;;;;;;16.70;6.07;;;8.50;99.70;;;;;;4960088;29;20169;-66
2022/02/28 08:14:52;;;;;;;11.07;5.75;;;8.60;99.30;;;;;;4958958;28;20057;-70
2022/02/28 08:17:19;;;;;;;16.88;7.28;;;8.60;99.30;;;;;;4973369;28;20154;-70
2022/02/28 08:19:46;;;;;;;12.65;6.72;;;8.70;99.20;;;;;;4959277;28;20494;-70
2022/02/28 08:22:13;;;;;;;16.88;6.13;;;8.80;99.30;;;;;;4970173;28;20051;-69
2022/02/28 08:24:40;;;;;;;15.55;5.88;;;8.90;99.40;;;;;;4946650;28;20050;-70
2022/02/28 08:27:07;;;;;;;12.30;5.82;;;8.90;98.60;;;;;;4970696;28;20099;-69
2022/02/28 08:29:34;;;;;;;15.00;5.90;;;9.00;98.60;;;;;;4954455;28;20126;-69
2022/02/28 08:32:01;;;;;;;12.52;6.60;;;9.10;98.00;;;;;;4953796;29;20043;-72
2022/02/28 08:34:28;;;;;;;13.00;6.10;;;9.10;97.40;;;;;;4956472;28;20131;-69
2022/02/28 08:36:55;;;;;;;15.35;6.13;;;9.20;97.60;;;;;;4966557;28;20058;-69
2022/02/28 08:39:22;;;;;;;13.70;6.70;;;9.30;98.00;;;;;;4958591;28;20395;-68
2022/02/28 08:41:49;;;;;;;16.90;7.60;;;9.40;97.00;;;;;;4955355;29;20529;-66
2022/02/28 08:44:16;;;;;;;14.40;7.05;;;9.40;96.50;;;;;;4954778;29;20043;-67
2022/02/28 08:46:43;;;;;;;54.55;41.25;;;9.50;97.10;;;;;;4960284;28;20143;-66
2022/02/28 08:49:10;;;;;;;17.67;8.40;;;9.60;96.50;;;;;;4970598;28;20055;-70
2022/02/28 08:51:38;;;;;;;15.32;9.15;;;9.70;96.30;;;;;;4987147;28;20055;-69
2022/02/28 08:54:05;;;;;;;20.95;9.95;;;9.70;95.80;;;;;;4954695;29;20419;-70
2022/02/28 08:56:32;;;;;;;18.17;7.88;;;9.80;96.70;;;;;;4966223;28;20391;-66
2022/02/28 08:58:59;;;;;;;21.95;8.98;;;9.90;95.90;;;;;;4992246;28;20065;-66
2022/02/28 09:01:26;;;;;;;20.45;9.43;;;10.00;96.20;;;;;;4988573;28;20364;-69
2022/02/28 09:03:54;;;;;;;16.38;8.25;;;10.20;95.60;;;;;;4967054;28;20126;-68
2022/02/28 09:06:23;;;;;;;19.93;6.83;;;10.20;94.80;;;;;;4955122;28;20126;-67
2022/02/28 09:08:49;;;;;;;18.90;7.07;;;10.30;94.80;;;;;;4986838;28;20062;-70
2022/02/28 09:11:17;;;;;;;15.85;7.50;;;10.30;95.10;;;;;;4956320;28;20086;-67
2022/02/28 09:13:44;;;;;;;22.73;12.57;;;10.30;94.90;;;;;;4958453;28;20473;-70
2022/02/28 09:16:11;;;;;;;20.65;8.80;;;10.40;95.10;;;;;;4955374;28;20051;-69
2022/02/28 09:18:38;;;;;;;13.20;6.93;;;10.60;94.50;;;;;;4966277;28;20038;-68
2022/02/28 09:21:06;;;;;;;19.73;7.25;;;10.80;95.20;;;;;;4969954;28;20406;-71
2022/02/28 09:23:33;;;;;;;16.50;6.25;;;11.00;94.00;;;;;;4957656;28;20077;-72
2022/02/28 09:26:01;;;;;;;17.30;7.80;;;11.00;93.50;;;;;;4955870;28;20049;-72
2022/02/28 09:28:30;;;;;;;18.42;6.25;;;11.20;93.70;;;;;;4986026;28;20395;-68
2022/02/28 09:30:57;;;;;;;13.02;5.93;;;11.30;93.20;;;;;;4966368;28;20102;-75
2022/02/28 09:33:24;;;;;;;17.77;7.22;;;11.30;93.20;;;;;;4954978;29;20483;-75
2022/02/28 09:35:52;;;;;;;19.58;5.88;;;11.40;93.70;;;;;;4985777;28;20049;-76
2022/02/28 09:38:19;;;;;;;15.45;6.63;;;11.50;93.20;;;;;;4955448;28;20049;-75
2022/02/28 09:40:50;;;;;;;14.63;5.80;;;11.40;93.70;;;;;;4954089;29;20418;-74
2022/02/28 09:43:19;;;;;;;15.87;6.13;;;11.40;93.70;;;;;;4954138;29;20058;-74
2022/02/28 09:45:46;;;;;;;13.65;6.03;;;11.40;93.80;;;;;;4969870;28;20566;-74
2022/02/28 09:48:14;;;;;;;14.07;4.63;;;11.40;94.20;;;;;;4970474;28;20055;-73
2022/02/28 09:50:43;;;;;;;13.48;5.68;;;11.50;94.00;;;;;;4970025;28;20090;-74
2022/02/28 09:53:13;;;;;;;13.68;5.45;;;11.50;93.90;;;;;;4955648;29;20492;-74
2022/02/28 09:55:40;;;;;;;13.43;5.47;;;11.50;93.70;;;;;;4969737;28;20051;-74
2022/02/28 09:58:07;;;;;;;11.00;5.38;;;11.50;94.50;;;;;;4953797;29;20371;-73
2022/02/28 10:00:34;;;;;;;14.52;4.97;;;11.60;94.80;;;;;;4969896;28;20063;-74
2022/02/28 10:03:03;;;;;;;15.87;6.83;;;11.70;94.80;;;;;;4954951;28;20174;-74
2022/02/28 10:05:30;;;;;;;12.98;5.22;;;11.90;94.20;;;;;;4970460;28;20129;-74
2022/02/28 10:07:59;;;;;;;14.23;5.47;;;12.00;93.10;;;;;;4955475;29;20086;-73
2022/02/28 10:10:26;;;;;;;12.77;5.00;;;12.10;93.20;;;;;;4969710;28;20054;-74
2022/02/28 10:12:54;;;;;;;14.85;5.78;;;12.10;93.20;;;;;;4969570;28;20055;-74
2022/02/28 10:15:22;;;;;;;13.50;4.60;;;12.10;93.20;;;;;;4953797;29;20090;-74
2022/02/28 10:17:50;;;;;;;10.68;4.80;;;12.10;93.30;;;;;;4985883;28;20057;-73
2022/02/28 10:20:27;;;;;;;13.00;6.00;;;12.20;93.20;;;;;;4954626;28;20137;-73
2022/02/28 10:23:02;;;;;;;16.80;5.20;;;12.20;93.20;;;;;;4969754;28;20079;-73
2022/02/28 10:25:46;;;;;;;10.65;4.85;;;12.20;93.40;;;;;;4954704;28;20130;-74
2022/02/28 10:28:24;;;;;;;15.32;5.75;;;12.10;93.40;;;;;;4985154;28;20074;-74
2022/02/28 10:31:04;;;;;;;12.20;4.82;;;12.20;93.90;;;;;;4954721;28;20069;-73
2022/02/28 10:33:36;;;;;;;13.55;5.80;;;12.20;93.20;;;;;;4968777;28;20063;-73
2022/02/28 10:36:11;;;;;;;15.85;5.55;;;12.20;92.80;;;;;;4954308;28;20055;-74
2022/02/28 10:38:43;;;;;;;14.35;5.10;;;12.30;93.10;;;;;;4984583;28;20082;-73
2022/02/28 10:41:27;;;;;;;14.48;5.43;;;12.20;93.00;;;;;;4937619;29;20051;-73
2022/02/28 10:43:56;;;;;;;13.88;5.28;;;12.20;92.80;;;;;;4937186;29;20082;-72
2022/02/28 10:46:29;;;;;;;9.65;4.40;;;12.30;93.00;;;;;;4937534;29;20079;-73
2022/02/28 10:49:09;;;;;;;9.15;5.40;;;12.30;92.20;;;;;;4937846;29;20479;-73
2022/02/28 10:51:48;;;;;;;8.40;4.55;;;12.30;92.60;;;;;;4953254;29;20510;-72
2022/02/28 10:54:18;;;;;;;12.23;5.63;;;12.30;92.60;;;;;;4954224;28;20047;-73
2022/02/28 10:56:48;;;;;;;11.52;5.45;;;12.30;93.00;;;;;;4954456;28;20055;-73
2022/02/28 10:59:16;;;;;;;11.95;6.00;;;12.30;92.70;;;;;;4952631;29;20062;-73
2022/02/28 11:01:43;;;;;;;9.50;4.75;;;12.20;92.80;;;;;;4969077;28;20241;-73
2022/02/28 11:04:11;;;;;;;10.45;4.63;;;12.30;93.20;;;;;;4984789;28;20130;-73
2022/02/28 11:06:38;;;;;;;11.25;4.65;;;12.30;92.80;;;;;;4969296;28;20429;-73
2022/02/28 11:09:05;;;;;;;14.65;6.55;;;12.30;92.90;;;;;;4968589;28;20051;-73
2022/02/28 11:11:33;;;;;;;11.00;4.85;;;12.30;93.60;;;;;;4954370;28;20054;-72
2022/02/28 11:14:00;;;;;;;13.63;5.78;;;12.40;93.50;;;;;;4953727;28;20059;-73
2022/02/28 11:16:28;;;;;;;11.52;5.22;;;12.50;93.40;;;;;;4954107;28;20488;-73
2022/02/28 11:19:02;;;;;;;14.98;5.15;;;12.70;93.40;;;;;;4983218;28;20455;-74
2022/02/28 11:21:29;;;;;;;13.50;5.05;;;12.70;92.70;;;;;;4953236;28;20144;-73
2022/02/28 11:23:56;;;;;;;11.52;4.57;;;12.70;93.10;;;;;;4984869;28;20051;-73
2022/02/28 11:26:23;;;;;;;13.05;4.72;;;12.80;92.70;;;;;;4968474;28;20507;-74
2022/02/28 11:28:50;;;;;;;17.52;5.00;;;12.80;92.40;;;;;;4954167;28;20058;-73
2022/02/28 11:31:17;;;;;;;10.63;4.78;;;12.80;92.70;;;;;;4970355;28;20051;-73
2022/02/28 11:34:13;;;;;;;11.73;4.80;;;12.90;92.80;;;;;;4972981;28;20069;-73
2022/02/28 11:36:47;;;;;;;9.57;4.78;;;13.00;92.60;;;;;;4956435;28;20494;-73
2022/02/28 11:39:17;;;;;;;9.10;5.20;;;13.00;92.80;;;;;;4956408;29;20050;-73
2022/02/28 11:41:44;;;;;;;12.27;4.55;;;13.10;92.60;;;;;;4956554;29;20091;-73
2022/02/28 11:44:15;;;;;;;13.98;4.32;;;13.20;92.40;;;;;;4941335;29;20047;-73
2022/02/28 11:46:45;;;;;;;10.85;5.80;;;13.30;91.60;;;;;;4956469;29;20051;-73
2022/02/28 11:49:42;;;;;;;7.68;4.68;;;13.20;91.70;;;;;;4942864;29;20047;-72
2022/02/28 11:52:32;;;;;;;9.98;4.53;;;13.30;91.80;;;;;;4956613;29;20066;-73
2022/02/28 11:55:09;;;;;;;12.52;5.10;;;13.40;91.80;;;;;;4956937;28;20062;-73
2022/02/28 11:57:54;;;;;;;12.48;4.30;;;13.40;91.80;;;;;;4948645;28;20062;-76
2022/02/28 12:00:46;;;;;;;32.00;20.58;;;13.40;91.90;;;;;;4966358;28;20043;-71
2022/02/28 12:03:22;;;;;;;11.82;5.63;;;13.40;91.20;;;;;;4940748;29;20051;-73
2022/02/28 12:05:49;;;;;;;9.60;5.20;;;13.30;91.60;;;;;;4956330;29;20483;-76
2022/02/28 12:08:16;;;;;;;9.82;4.32;;;13.10;92.10;;;;;;4988299;28;20495;-78
2022/02/28 12:10:56;;;;;;;11.95;4.30;;;13.20;92.80;;;;;;4955425;29;20062;-72
2022/02/28 12:13:34;;;;;;;10.07;3.88;;;13.10;92.30;;;;;;4964300;28;20418;-76
2022/02/28 12:17:30;;;;;;;10.25;5.07;;;13.20;92.80;;;;;;4976683;28;20053;-71
2022/02/28 12:19:17;;;;;;;15.05;4.40;;;13.10;93.20;;;;;;4973798;28;20055;-71
2022/02/28 12:21:45;;;;;;;14.52;4.22;;;13.00;93.10;;;;;;4973300;28;20126;-68
2022/02/28 12:24:14;;;;;;;8.82;4.10;;;13.00;93.20;;;;;;4939772;29;20047;-70
2022/02/28 12:26:47;;;;;;;;;;;13.00;93.60;;;;;;4944682;28;20522;-70
2022/02/28 12:29:14;;;;;;;9.55;4.57;;;13.10;93.80;;;;;;4956928;28;20422;-71
2022/02/28 12:31:41;;;;;;;10.48;3.90;;;13.00;93.50;;;;;;4929645;28;20133;-67
2022/02/28 12:34:10;;;;;;;10.50;4.00;;;13.10;94.00;;;;;;4964870;28;20051;-67
2022/02/28 12:36:37;;;;;;;9.10;4.25;;;13.10;94.10;;;;;;4959812;28;20508;-69
2022/02/28 12:39:07;;;;;;;10.95;3.50;;;13.20;93.70;;;;;;4986686;28;20056;-69
2022/02/28 12:41:47;;;;;;;9.73;4.32;;;13.30;93.20;;;;;;4970180;28;20059;-70
2022/02/28 12:44:16;;;;;;;9.30;3.53;;;13.20;93.30;;;;;;4984088;28;20136;-70
2022/02/28 12:46:47;;;;;;;12.35;4.63;;;13.20;93.60;;;;;;4954383;29;20051;-67
2022/02/28 12:49:17;;;;;;;9.43;3.58;;;13.30;93.80;;;;;;4939307;29;20043;-67
2022/02/28 12:51:52;;;;;;;12.13;4.97;;;13.40;94.20;;;;;;4983986;28;20407;-74